sensor_id;sensor_type;location;lat;lon;timestamp;P1;durP1;ratioP1;P2;durP2;ratioP2
39772;SDS011;25451;51.960;6.250;2022-09-02T00:01:34;2.92;;;0.75;;
39772;SDS011;25451;51.960;6.250;2022-09-02T00:04:06;3.20;;;0.98;;
39772;SDS011;25451;51.960;6.250;2022-09-02T00:06:34;4.30;;;0.90;;
39772;SDS011;25451;51.960;6.250;2022-09-02T00:09:00;1.43;;;0.70;;
39772;SDS011;25451;51.960;6.250;2022-09-02T00:11:28;2.08;;;0.65;;
39772;SDS011;25451;51.960;6.250;2022-09-02T00:13:56;1.92;;;0.73;;
39772;SDS011;25451;51.960;6.250;2022-09-02T00:16:22;2.55;;;0.88;;
39772;SDS011;25451;51.960;6.250;2022-09-02T00:18:49;2.73;;;0.70;;
39772;SDS011;25451;51.960;6.250;2022-09-02T00:21:16;1.20;;;0.65;;
39772;SDS011;25451;51.960;6.250;2022-09-02T00:23:42;2.60;;;0.70;;
39772;SDS011;25451;51.960;6.250;2022-09-02T00:26:08;2.63;;;0.70;;
39772;SDS011;25451;51.960;6.250;2022-09-02T00:28:35;2.00;;;0.80;;
39772;SDS011;25451;51.960;6.250;2022-09-02T00:31:00;3.40;;;0.80;;
39772;SDS011;25451;51.960;6.250;2022-09-02T00:33:26;1.60;;;0.80;;
39772;SDS011;25451;51.960;6.250;2022-09-02T00:35:51;1.25;;;0.70;;
39772;SDS011;25451;51.960;6.250;2022-09-02T00:38:16;2.87;;;0.87;;
39772;SDS011;25451;51.960;6.250;2022-09-02T00:40:43;2.40;;;0.80;;
39772;SDS011;25451;51.960;6.250;2022-09-02T00:43:21;1.20;;;0.70;;
39772;SDS011;25451;51.960;6.250;2022-09-02T00:46:01;1.63;;;0.80;;
39772;SDS011;25451;51.960;6.250;2022-09-02T00:48:26;2.20;;;0.70;;
39772;SDS011;25451;51.960;6.250;2022-09-02T00:50:51;2.03;;;0.88;;
39772;SDS011;25451;51.960;6.250;2022-09-02T00:53:17;2.47;;;0.90;;
39772;SDS011;25451;51.960;6.250;2022-09-02T00:55:43;1.13;;;0.60;;
39772;SDS011;25451;51.960;6.250;2022-09-02T00:58:14;3.38;;;0.85;;
39772;SDS011;25451;51.960;6.250;2022-09-02T01:00:44;2.90;;;0.70;;
39772;SDS011;25451;51.960;6.250;2022-09-02T01:03:12;0.80;;;0.60;;
39772;SDS011;25451;51.960;6.250;2022-09-02T01:05:42;1.60;;;0.70;;
39772;SDS011;25451;51.960;6.250;2022-09-02T01:08:12;2.85;;;0.60;;
39772;SDS011;25451;51.960;6.250;2022-09-02T01:10:39;3.30;;;0.80;;
39772;SDS011;25451;51.960;6.250;2022-09-02T01:13:07;2.00;;;0.70;;
39772;SDS011;25451;51.960;6.250;2022-09-02T01:15:52;1.55;;;0.80;;
39772;SDS011;25451;51.960;6.250;2022-09-02T01:18:20;1.98;;;0.80;;
39772;SDS011;25451;51.960;6.250;2022-09-02T01:20:50;1.98;;;0.90;;
39772;SDS011;25451;51.960;6.250;2022-09-02T01:23:16;2.35;;;0.80;;
39772;SDS011;25451;51.960;6.250;2022-09-02T01:25:42;3.27;;;0.80;;
39772;SDS011;25451;51.960;6.250;2022-09-02T01:28:10;2.95;;;0.70;;
39772;SDS011;25451;51.960;6.250;2022-09-02T01:30:39;1.85;;;0.70;;
39772;SDS011;25451;51.960;6.250;2022-09-02T01:33:07;1.92;;;0.80;;
39772;SDS011;25451;51.960;6.250;2022-09-02T01:35:33;3.90;;;0.88;;
39772;SDS011;25451;51.960;6.250;2022-09-02T01:37:59;1.97;;;0.60;;
39772;SDS011;25451;51.960;6.250;2022-09-02T01:40:26;2.33;;;0.80;;
39772;SDS011;25451;51.960;6.250;2022-09-02T01:42:54;1.52;;;0.70;;
39772;SDS011;25451;51.960;6.250;2022-09-02T01:45:22;5.97;;;0.90;;
39772;SDS011;25451;51.960;6.250;2022-09-02T01:47:48;1.25;;;0.70;;
39772;SDS011;25451;51.960;6.250;2022-09-02T01:50:14;3.42;;;0.90;;
39772;SDS011;25451;51.960;6.250;2022-09-02T01:52:39;2.20;;;0.90;;
39772;SDS011;25451;51.960;6.250;2022-09-02T01:55:05;5.07;;;0.80;;
39772;SDS011;25451;51.960;6.250;2022-09-02T01:57:31;1.73;;;0.80;;
39772;SDS011;25451;51.960;6.250;2022-09-02T01:59:56;1.50;;;0.70;;
39772;SDS011;25451;51.960;6.250;2022-09-02T02:02:22;2.23;;;0.70;;
39772;SDS011;25451;51.960;6.250;2022-09-02T02:04:48;2.83;;;0.90;;
39772;SDS011;25451;51.960;6.250;2022-09-02T02:07:14;1.80;;;0.80;;
39772;SDS011;25451;51.960;6.250;2022-09-02T02:09:41;3.75;;;0.88;;
39772;SDS011;25451;51.960;6.250;2022-09-02T02:12:07;2.25;;;0.80;;
39772;SDS011;25451;51.960;6.250;2022-09-02T02:14:33;1.88;;;0.80;;
39772;SDS011;25451;51.960;6.250;2022-09-02T02:16:59;1.77;;;0.90;;
39772;SDS011;25451;51.960;6.250;2022-09-02T02:19:24;2.10;;;0.70;;
39772;SDS011;25451;51.960;6.250;2022-09-02T02:21:50;2.15;;;0.90;;
39772;SDS011;25451;51.960;6.250;2022-09-02T02:24:16;3.88;;;0.85;;
39772;SDS011;25451;51.960;6.250;2022-09-02T02:26:42;3.03;;;1.17;;
39772;SDS011;25451;51.960;6.250;2022-09-02T02:29:07;1.70;;;0.83;;
39772;SDS011;25451;51.960;6.250;2022-09-02T02:31:33;1.25;;;0.70;;
39772;SDS011;25451;51.960;6.250;2022-09-02T02:33:58;2.10;;;0.70;;
39772;SDS011;25451;51.960;6.250;2022-09-02T02:36:24;3.83;;;0.80;;
39772;SDS011;25451;51.960;6.250;2022-09-02T02:38:49;3.67;;;0.70;;
39772;SDS011;25451;51.960;6.250;2022-09-02T02:41:15;1.20;;;0.80;;
39772;SDS011;25451;51.960;6.250;2022-09-02T02:43:41;1.83;;;0.60;;
39772;SDS011;25451;51.960;6.250;2022-09-02T02:46:07;1.05;;;0.65;;
39772;SDS011;25451;51.960;6.250;2022-09-02T02:48:34;3.45;;;1.00;;
39772;SDS011;25451;51.960;6.250;2022-09-02T02:51:00;3.05;;;0.80;;
39772;SDS011;25451;51.960;6.250;2022-09-02T02:53:25;1.57;;;0.80;;
39772;SDS011;25451;51.960;6.250;2022-09-02T02:55:53;2.47;;;0.70;;
39772;SDS011;25451;51.960;6.250;2022-09-02T02:58:19;1.57;;;0.73;;
39772;SDS011;25451;51.960;6.250;2022-09-02T03:00:44;1.30;;;0.70;;
39772;SDS011;25451;51.960;6.250;2022-09-02T03:03:10;3.47;;;0.77;;
39772;SDS011;25451;51.960;6.250;2022-09-02T03:05:36;1.55;;;0.75;;
39772;SDS011;25451;51.960;6.250;2022-09-02T03:08:03;3.37;;;0.83;;
39772;SDS011;25451;51.960;6.250;2022-09-02T03:10:30;2.90;;;0.90;;
39772;SDS011;25451;51.960;6.250;2022-09-02T03:12:57;3.42;;;0.80;;
39772;SDS011;25451;51.960;6.250;2022-09-02T03:15:24;1.73;;;0.80;;
39772;SDS011;25451;51.960;6.250;2022-09-02T03:17:50;1.63;;;0.70;;
39772;SDS011;25451;51.960;6.250;2022-09-02T03:20:16;1.90;;;0.70;;
39772;SDS011;25451;51.960;6.250;2022-09-02T03:22:42;1.55;;;0.70;;
39772;SDS011;25451;51.960;6.250;2022-09-02T03:25:09;1.73;;;0.70;;
39772;SDS011;25451;51.960;6.250;2022-09-02T03:27:37;2.67;;;0.80;;
39772;SDS011;25451;51.960;6.250;2022-09-02T03:30:04;1.38;;;0.77;;
39772;SDS011;25451;51.960;6.250;2022-09-02T03:32:31;1.60;;;0.80;;
39772;SDS011;25451;51.960;6.250;2022-09-02T03:34:56;2.27;;;0.77;;
39772;SDS011;25451;51.960;6.250;2022-09-02T03:37:21;2.40;;;0.80;;
39772;SDS011;25451;51.960;6.250;2022-09-02T03:39:47;2.30;;;0.70;;
39772;SDS011;25451;51.960;6.250;2022-09-02T03:42:12;1.27;;;0.80;;
39772;SDS011;25451;51.960;6.250;2022-09-02T03:44:38;1.70;;;0.73;;
39772;SDS011;25451;51.960;6.250;2022-09-02T03:47:05;7.40;;;0.93;;
39772;SDS011;25451;51.960;6.250;2022-09-02T03:49:31;2.30;;;0.77;;
39772;SDS011;25451;51.960;6.250;2022-09-02T03:51:56;4.23;;;0.80;;
39772;SDS011;25451;51.960;6.250;2022-09-02T03:54:22;2.63;;;0.90;;
39772;SDS011;25451;51.960;6.250;2022-09-02T03:56:47;1.47;;;0.90;;
39772;SDS011;25451;51.960;6.250;2022-09-02T03:59:12;1.38;;;0.70;;
39772;SDS011;25451;51.960;6.250;2022-09-02T04:01:37;2.17;;;0.80;;
39772;SDS011;25451;51.960;6.250;2022-09-02T04:04:04;1.60;;;0.90;;
39772;SDS011;25451;51.960;6.250;2022-09-02T04:06:30;3.25;;;0.85;;
39772;SDS011;25451;51.960;6.250;2022-09-02T04:08:55;2.03;;;0.80;;
39772;SDS011;25451;51.960;6.250;2022-09-02T04:11:21;1.98;;;0.80;;
39772;SDS011;25451;51.960;6.250;2022-09-02T04:13:47;2.20;;;0.80;;
39772;SDS011;25451;51.960;6.250;2022-09-02T04:16:15;1.40;;;0.80;;
39772;SDS011;25451;51.960;6.250;2022-09-02T04:18:43;2.13;;;0.90;;
39772;SDS011;25451;51.960;6.250;2022-09-02T04:21:09;2.80;;;1.00;;
39772;SDS011;25451;51.960;6.250;2022-09-02T04:23:35;1.80;;;0.82;;
39772;SDS011;25451;51.960;6.250;2022-09-02T04:26:05;1.60;;;0.70;;
39772;SDS011;25451;51.960;6.250;2022-09-02T04:28:35;1.75;;;0.80;;
39772;SDS011;25451;51.960;6.250;2022-09-02T04:31:08;2.03;;;0.80;;
39772;SDS011;25451;51.960;6.250;2022-09-02T04:33:35;2.17;;;0.80;;
39772;SDS011;25451;51.960;6.250;2022-09-02T04:36:05;4.57;;;0.80;;
39772;SDS011;25451;51.960;6.250;2022-09-02T04:38:31;3.50;;;1.00;;
39772;SDS011;25451;51.960;6.250;2022-09-02T04:40:57;1.77;;;0.70;;
39772;SDS011;25451;51.960;6.250;2022-09-02T04:43:23;1.83;;;0.90;;
39772;SDS011;25451;51.960;6.250;2022-09-02T04:45:49;4.68;;;0.90;;
39772;SDS011;25451;51.960;6.250;2022-09-02T04:48:15;1.67;;;0.80;;
39772;SDS011;25451;51.960;6.250;2022-09-02T04:50:42;1.42;;;0.90;;
39772;SDS011;25451;51.960;6.250;2022-09-02T04:53:07;1.98;;;0.85;;
39772;SDS011;25451;51.960;6.250;2022-09-02T04:55:33;5.07;;;1.52;;
39772;SDS011;25451;51.960;6.250;2022-09-02T04:57:59;5.13;;;0.95;;
39772;SDS011;25451;51.960;6.250;2022-09-02T05:00:24;1.57;;;0.80;;
39772;SDS011;25451;51.960;6.250;2022-09-02T05:02:50;1.92;;;0.80;;
39772;SDS011;25451;51.960;6.250;2022-09-02T05:05:18;1.77;;;0.90;;
39772;SDS011;25451;51.960;6.250;2022-09-02T05:07:43;2.40;;;0.90;;
39772;SDS011;25451;51.960;6.250;2022-09-02T05:10:08;2.28;;;0.90;;
39772;SDS011;25451;51.960;6.250;2022-09-02T05:12:36;2.97;;;1.60;;
39772;SDS011;25451;51.960;6.250;2022-09-02T05:15:02;2.92;;;0.80;;
39772;SDS011;25451;51.960;6.250;2022-09-02T05:17:28;2.90;;;0.70;;
39772;SDS011;25451;51.960;6.250;2022-09-02T05:19:56;6.60;;;1.00;;
39772;SDS011;25451;51.960;6.250;2022-09-02T05:22:21;1.48;;;0.73;;
39772;SDS011;25451;51.960;6.250;2022-09-02T05:24:47;1.70;;;1.00;;
39772;SDS011;25451;51.960;6.250;2022-09-02T05:27:13;2.93;;;0.90;;
39772;SDS011;25451;51.960;6.250;2022-09-02T05:29:40;1.85;;;0.80;;
39772;SDS011;25451;51.960;6.250;2022-09-02T05:32:05;1.73;;;0.90;;
39772;SDS011;25451;51.960;6.250;2022-09-02T05:34:32;2.45;;;0.80;;
39772;SDS011;25451;51.960;6.250;2022-09-02T05:36:58;2.70;;;1.00;;
39772;SDS011;25451;51.960;6.250;2022-09-02T05:39:23;1.40;;;0.87;;
39772;SDS011;25451;51.960;6.250;2022-09-02T05:41:48;1.77;;;0.90;;
39772;SDS011;25451;51.960;6.250;2022-09-02T05:44:14;3.07;;;0.90;;
39772;SDS011;25451;51.960;6.250;2022-09-02T05:46:39;2.73;;;0.80;;
39772;SDS011;25451;51.960;6.250;2022-09-02T05:49:05;4.00;;;0.97;;
39772;SDS011;25451;51.960;6.250;2022-09-02T05:51:42;2.03;;;0.88;;
39772;SDS011;25451;51.960;6.250;2022-09-02T05:54:22;2.88;;;0.90;;
39772;SDS011;25451;51.960;6.250;2022-09-02T05:56:53;2.28;;;1.00;;
39772;SDS011;25451;51.960;6.250;2022-09-02T05:59:20;2.97;;;0.90;;
39772;SDS011;25451;51.960;6.250;2022-09-02T06:01:47;2.70;;;0.90;;
39772;SDS011;25451;51.960;6.250;2022-09-02T06:04:13;3.63;;;0.98;;
39772;SDS011;25451;51.960;6.250;2022-09-02T06:06:39;2.95;;;1.00;;
39772;SDS011;25451;51.960;6.250;2022-09-02T06:09:06;2.90;;;0.97;;
39772;SDS011;25451;51.960;6.250;2022-09-02T06:11:33;4.00;;;1.00;;
39772;SDS011;25451;51.960;6.250;2022-09-02T06:14:03;2.97;;;1.23;;
39772;SDS011;25451;51.960;6.250;2022-09-02T06:16:29;2.47;;;0.82;;
39772;SDS011;25451;51.960;6.250;2022-09-02T06:18:55;1.63;;;0.90;;
39772;SDS011;25451;51.960;6.250;2022-09-02T06:21:21;2.10;;;0.83;;
39772;SDS011;25451;51.960;6.250;2022-09-02T06:23:46;2.33;;;1.00;;
39772;SDS011;25451;51.960;6.250;2022-09-02T06:26:12;4.33;;;0.97;;
39772;SDS011;25451;51.960;6.250;2022-09-02T06:28:39;2.30;;;0.80;;
39772;SDS011;25451;51.960;6.250;2022-09-02T06:31:15;4.93;;;0.90;;
39772;SDS011;25451;51.960;6.250;2022-09-02T06:33:45;2.53;;;0.90;;
39772;SDS011;25451;51.960;6.250;2022-09-02T06:36:15;1.85;;;0.90;;
39772;SDS011;25451;51.960;6.250;2022-09-02T06:38:43;3.55;;;1.08;;
39772;SDS011;25451;51.960;6.250;2022-09-02T06:41:12;3.90;;;0.95;;
39772;SDS011;25451;51.960;6.250;2022-09-02T06:43:39;1.52;;;0.90;;
39772;SDS011;25451;51.960;6.250;2022-09-02T06:46:05;1.83;;;0.90;;
39772;SDS011;25451;51.960;6.250;2022-09-02T06:48:31;1.73;;;0.90;;
39772;SDS011;25451;51.960;6.250;2022-09-02T06:50:57;1.73;;;0.80;;
39772;SDS011;25451;51.960;6.250;2022-09-02T06:53:22;2.73;;;0.80;;
39772;SDS011;25451;51.960;6.250;2022-09-02T06:55:48;2.50;;;0.85;;
39772;SDS011;25451;51.960;6.250;2022-09-02T06:58:15;2.35;;;0.80;;
39772;SDS011;25451;51.960;6.250;2022-09-02T07:00:41;7.20;;;1.05;;
39772;SDS011;25451;51.960;6.250;2022-09-02T07:03:07;3.00;;;0.90;;
39772;SDS011;25451;51.960;6.250;2022-09-02T07:05:59;4.70;;;0.90;;
39772;SDS011;25451;51.960;6.250;2022-09-02T07:08:26;2.28;;;0.82;;
39772;SDS011;25451;51.960;6.250;2022-09-02T07:10:52;1.80;;;0.90;;
39772;SDS011;25451;51.960;6.250;2022-09-02T07:13:17;3.20;;;0.90;;
39772;SDS011;25451;51.960;6.250;2022-09-02T07:15:42;3.93;;;1.10;;
39772;SDS011;25451;51.960;6.250;2022-09-02T07:18:08;3.37;;;0.90;;
39772;SDS011;25451;51.960;6.250;2022-09-02T07:20:33;3.50;;;0.93;;
39772;SDS011;25451;51.960;6.250;2022-09-02T07:22:58;4.13;;;0.90;;
39772;SDS011;25451;51.960;6.250;2022-09-02T07:25:23;2.57;;;0.83;;
39772;SDS011;25451;51.960;6.250;2022-09-02T07:27:49;4.17;;;1.20;;
39772;SDS011;25451;51.960;6.250;2022-09-02T07:30:15;3.40;;;1.00;;
39772;SDS011;25451;51.960;6.250;2022-09-02T07:32:41;3.58;;;1.00;;
39772;SDS011;25451;51.960;6.250;2022-09-02T07:35:07;3.17;;;1.10;;
39772;SDS011;25451;51.960;6.250;2022-09-02T07:37:33;4.43;;;0.90;;
39772;SDS011;25451;51.960;6.250;2022-09-02T07:39:59;2.30;;;1.03;;
39772;SDS011;25451;51.960;6.250;2022-09-02T07:42:26;3.03;;;0.95;;
39772;SDS011;25451;51.960;6.250;2022-09-02T07:44:51;3.93;;;1.00;;
39772;SDS011;25451;51.960;6.250;2022-09-02T07:47:17;3.22;;;1.23;;
39772;SDS011;25451;51.960;6.250;2022-09-02T07:49:42;1.47;;;0.90;;
39772;SDS011;25451;51.960;6.250;2022-09-02T07:52:07;3.30;;;1.03;;
39772;SDS011;25451;51.960;6.250;2022-09-02T07:54:32;1.93;;;0.90;;
39772;SDS011;25451;51.960;6.250;2022-09-02T07:56:58;3.03;;;0.90;;
39772;SDS011;25451;51.960;6.250;2022-09-02T07:59:24;3.20;;;1.00;;
39772;SDS011;25451;51.960;6.250;2022-09-02T08:01:50;3.70;;;1.00;;
39772;SDS011;25451;51.960;6.250;2022-09-02T08:04:16;4.05;;;0.90;;
39772;SDS011;25451;51.960;6.250;2022-09-02T08:06:43;2.83;;;0.90;;
39772;SDS011;25451;51.960;6.250;2022-09-02T08:09:09;2.43;;;0.90;;
39772;SDS011;25451;51.960;6.250;2022-09-02T08:11:39;2.58;;;0.90;;
39772;SDS011;25451;51.960;6.250;2022-09-02T08:14:08;3.20;;;1.05;;
39772;SDS011;25451;51.960;6.250;2022-09-02T08:16:36;1.57;;;0.90;;
39772;SDS011;25451;51.960;6.250;2022-09-02T08:19:03;7.00;;;1.10;;
39772;SDS011;25451;51.960;6.250;2022-09-02T08:21:29;4.32;;;1.00;;
39772;SDS011;25451;51.960;6.250;2022-09-02T08:23:55;2.53;;;1.02;;
39772;SDS011;25451;51.960;6.250;2022-09-02T08:26:21;4.70;;;1.00;;
39772;SDS011;25451;51.960;6.250;2022-09-02T08:28:46;6.43;;;0.90;;
39772;SDS011;25451;51.960;6.250;2022-09-02T08:31:12;5.87;;;0.90;;
39772;SDS011;25451;51.960;6.250;2022-09-02T08:33:37;4.13;;;1.00;;
39772;SDS011;25451;51.960;6.250;2022-09-02T08:36:03;2.90;;;1.10;;
39772;SDS011;25451;51.960;6.250;2022-09-02T08:38:30;5.55;;;1.10;;
39772;SDS011;25451;51.960;6.250;2022-09-02T08:40:55;4.50;;;1.00;;
39772;SDS011;25451;51.960;6.250;2022-09-02T08:45:55;4.60;;;0.98;;
39772;SDS011;25451;51.960;6.250;2022-09-02T08:48:37;4.18;;;1.10;;
39772;SDS011;25451;51.960;6.250;2022-09-02T08:51:07;2.43;;;1.00;;
39772;SDS011;25451;51.960;6.250;2022-09-02T08:53:52;4.70;;;0.90;;
39772;SDS011;25451;51.960;6.250;2022-09-02T08:56:24;3.28;;;1.20;;
39772;SDS011;25451;51.960;6.250;2022-09-02T08:58:52;5.25;;;1.30;;
39772;SDS011;25451;51.960;6.250;2022-09-02T09:01:20;3.42;;;1.30;;
39772;SDS011;25451;51.960;6.250;2022-09-02T09:06:40;3.72;;;1.20;;
39772;SDS011;25451;51.960;6.250;2022-09-02T09:09:36;4.13;;;1.30;;
39772;SDS011;25451;51.960;6.250;2022-09-02T09:15:01;2.08;;;1.23;;
39772;SDS011;25451;51.960;6.250;2022-09-02T09:20:11;3.72;;;1.17;;
39772;SDS011;25451;51.960;6.250;2022-09-02T09:22:41;4.22;;;1.30;;
39772;SDS011;25451;51.960;6.250;2022-09-02T09:25:08;8.88;;;1.30;;
39772;SDS011;25451;51.960;6.250;2022-09-02T09:27:36;2.90;;;1.40;;
39772;SDS011;25451;51.960;6.250;2022-09-02T09:30:01;3.83;;;1.37;;
39772;SDS011;25451;51.960;6.250;2022-09-02T09:32:32;4.07;;;1.20;;
39772;SDS011;25451;51.960;6.250;2022-09-02T09:35:09;4.97;;;1.50;;
39772;SDS011;25451;51.960;6.250;2022-09-02T09:37:40;2.35;;;1.55;;
39772;SDS011;25451;51.960;6.250;2022-09-02T09:42:56;4.10;;;1.40;;
39772;SDS011;25451;51.960;6.250;2022-09-02T09:48:21;4.18;;;1.48;;
39772;SDS011;25451;51.960;6.250;2022-09-02T09:53:25;4.37;;;1.40;;
39772;SDS011;25451;51.960;6.250;2022-09-02T10:01:09;4.78;;;1.50;;
39772;SDS011;25451;51.960;6.250;2022-09-02T10:03:35;3.00;;;1.48;;
39772;SDS011;25451;51.960;6.250;2022-09-02T10:06:50;3.43;;;1.40;;
39772;SDS011;25451;51.960;6.250;2022-09-02T10:08:59;2.63;;;1.40;;
39772;SDS011;25451;51.960;6.250;2022-09-02T10:11:30;4.63;;;1.42;;
39772;SDS011;25451;51.960;6.250;2022-09-02T10:14:04;3.85;;;1.40;;
39772;SDS011;25451;51.960;6.250;2022-09-02T10:19:05;5.57;;;1.40;;
39772;SDS011;25451;51.960;6.250;2022-09-02T10:27:14;5.60;;;1.40;;
39772;SDS011;25451;51.960;6.250;2022-09-02T10:32:27;2.33;;;1.40;;
39772;SDS011;25451;51.960;6.250;2022-09-02T10:35:15;3.92;;;1.60;;
39772;SDS011;25451;51.960;6.250;2022-09-02T10:44:06;5.32;;;1.77;;
39772;SDS011;25451;51.960;6.250;2022-09-02T10:58:29;3.97;;;1.70;;
39772;SDS011;25451;51.960;6.250;2022-09-02T11:01:24;5.60;;;1.70;;
39772;SDS011;25451;51.960;6.250;2022-09-02T11:06:28;4.20;;;1.80;;
39772;SDS011;25451;51.960;6.250;2022-09-02T11:08:57;4.30;;;1.60;;
39772;SDS011;25451;51.960;6.250;2022-09-02T11:11:29;3.35;;;1.65;;
39772;SDS011;25451;51.960;6.250;2022-09-02T11:14:08;7.78;;;1.58;;
39772;SDS011;25451;51.960;6.250;2022-09-02T11:16:44;3.20;;;2.25;;
39772;SDS011;25451;51.960;6.250;2022-09-02T11:19:20;5.77;;;2.30;;
39772;SDS011;25451;51.960;6.250;2022-09-02T11:22:02;3.13;;;1.60;;
39772;SDS011;25451;51.960;6.250;2022-09-02T11:25:09;3.75;;;1.63;;
39772;SDS011;25451;51.960;6.250;2022-09-02T11:27:51;3.35;;;1.52;;
39772;SDS011;25451;51.960;6.250;2022-09-02T11:30:25;2.75;;;1.60;;
39772;SDS011;25451;51.960;6.250;2022-09-02T11:33:06;4.53;;;1.73;;
39772;SDS011;25451;51.960;6.250;2022-09-02T11:35:39;4.65;;;1.50;;
39772;SDS011;25451;51.960;6.250;2022-09-02T11:38:24;2.63;;;1.55;;
39772;SDS011;25451;51.960;6.250;2022-09-02T11:41:19;4.70;;;1.58;;
39772;SDS011;25451;51.960;6.250;2022-09-02T11:43:55;5.93;;;1.67;;
39772;SDS011;25451;51.960;6.250;2022-09-02T11:49:31;3.50;;;1.40;;
39772;SDS011;25451;51.960;6.250;2022-09-02T11:55:07;3.55;;;1.33;;
39772;SDS011;25451;51.960;6.250;2022-09-02T11:57:40;4.22;;;1.40;;
39772;SDS011;25451;51.960;6.250;2022-09-02T12:00:07;3.37;;;1.47;;
39772;SDS011;25451;51.960;6.250;2022-09-02T12:07:54;3.15;;;1.40;;
39772;SDS011;25451;51.960;6.250;2022-09-02T12:13:05;2.10;;;1.40;;
39772;SDS011;25451;51.960;6.250;2022-09-02T12:15:32;5.53;;;1.70;;
39772;SDS011;25451;51.960;6.250;2022-09-02T12:18:09;5.07;;;1.40;;
39772;SDS011;25451;51.960;6.250;2022-09-02T12:23:00;3.40;;;1.50;;
39772;SDS011;25451;51.960;6.250;2022-09-02T12:33:35;4.07;;;1.57;;
39772;SDS011;25451;51.960;6.250;2022-09-02T12:36:02;3.05;;;1.45;;
39772;SDS011;25451;51.960;6.250;2022-09-02T12:43:39;2.40;;;1.57;;
39772;SDS011;25451;51.960;6.250;2022-09-02T12:51:59;2.45;;;1.23;;
39772;SDS011;25451;51.960;6.250;2022-09-02T12:54:46;3.38;;;2.03;;
39772;SDS011;25451;51.960;6.250;2022-09-02T12:57:14;4.25;;;1.48;;
39772;SDS011;25451;51.960;6.250;2022-09-02T12:59:41;2.40;;;1.35;;
39772;SDS011;25451;51.960;6.250;2022-09-02T13:05:16;1.92;;;1.40;;
39772;SDS011;25451;51.960;6.250;2022-09-02T13:25:01;2.33;;;1.30;;
39772;SDS011;25451;51.960;6.250;2022-09-02T13:33:17;2.97;;;1.30;;
39772;SDS011;25451;51.960;6.250;2022-09-02T13:35:43;4.05;;;1.40;;
39772;SDS011;25451;51.960;6.250;2022-09-02T13:38:09;3.07;;;1.40;;
39772;SDS011;25451;51.960;6.250;2022-09-02T13:40:36;3.17;;;1.40;;
39772;SDS011;25451;51.960;6.250;2022-09-02T13:45:37;2.63;;;1.60;;
39772;SDS011;25451;51.960;6.250;2022-09-02T13:48:37;1.97;;;1.27;;
39772;SDS011;25451;51.960;6.250;2022-09-02T13:50:58;2.17;;;1.30;;
39772;SDS011;25451;51.960;6.250;2022-09-02T13:56:00;2.63;;;1.40;;
39772;SDS011;25451;51.960;6.250;2022-09-02T14:01:15;2.30;;;1.40;;
39772;SDS011;25451;51.960;6.250;2022-09-02T14:03:53;2.67;;;1.30;;
39772;SDS011;25451;51.960;6.250;2022-09-02T14:06:28;2.35;;;1.40;;
39772;SDS011;25451;51.960;6.250;2022-09-02T14:09:00;2.75;;;1.42;;
39772;SDS011;25451;51.960;6.250;2022-09-02T14:11:29;6.18;;;1.60;;
39772;SDS011;25451;51.960;6.250;2022-09-02T14:14:04;3.33;;;1.40;;
39772;SDS011;25451;51.960;6.250;2022-09-02T14:16:34;2.58;;;1.45;;
39772;SDS011;25451;51.960;6.250;2022-09-02T14:19:07;3.47;;;1.48;;
39772;SDS011;25451;51.960;6.250;2022-09-02T14:21:35;2.40;;;1.45;;
39772;SDS011;25451;51.960;6.250;2022-09-02T14:24:09;2.10;;;1.20;;
39772;SDS011;25451;51.960;6.250;2022-09-02T14:26:37;2.72;;;1.30;;
39772;SDS011;25451;51.960;6.250;2022-09-02T14:29:07;3.05;;;1.40;;
39772;SDS011;25451;51.960;6.250;2022-09-02T14:31:37;2.50;;;1.40;;
39772;SDS011;25451;51.960;6.250;2022-09-02T14:34:03;2.50;;;1.50;;
39772;SDS011;25451;51.960;6.250;2022-09-02T14:36:48;2.55;;;1.55;;
39772;SDS011;25451;51.960;6.250;2022-09-02T14:39:14;5.53;;;1.70;;
39772;SDS011;25451;51.960;6.250;2022-09-02T14:41:45;3.35;;;1.50;;
39772;SDS011;25451;51.960;6.250;2022-09-02T14:47:00;3.70;;;1.60;;
39772;SDS011;25451;51.960;6.250;2022-09-02T14:49:35;2.55;;;1.50;;
39772;SDS011;25451;51.960;6.250;2022-09-02T14:54:54;3.33;;;1.50;;
39772;SDS011;25451;51.960;6.250;2022-09-02T14:57:23;3.17;;;1.40;;
39772;SDS011;25451;51.960;6.250;2022-09-02T14:59:48;5.50;;;1.58;;
39772;SDS011;25451;51.960;6.250;2022-09-02T15:04:53;3.05;;;1.35;;
39772;SDS011;25451;51.960;6.250;2022-09-02T15:07:22;6.82;;;1.50;;
39772;SDS011;25451;51.960;6.250;2022-09-02T15:09:48;3.07;;;1.50;;
39772;SDS011;25451;51.960;6.250;2022-09-02T15:12:23;2.50;;;1.50;;
39772;SDS011;25451;51.960;6.250;2022-09-02T15:14:49;3.28;;;1.50;;
39772;SDS011;25451;51.960;6.250;2022-09-02T15:17:15;2.53;;;1.42;;
39772;SDS011;25451;51.960;6.250;2022-09-02T15:19:42;3.42;;;1.60;;
39772;SDS011;25451;51.960;6.250;2022-09-02T15:22:07;2.23;;;1.40;;
39772;SDS011;25451;51.960;6.250;2022-09-02T15:24:32;4.37;;;1.40;;
39772;SDS011;25451;51.960;6.250;2022-09-02T15:26:58;4.67;;;1.60;;
39772;SDS011;25451;51.960;6.250;2022-09-02T15:29:23;5.47;;;1.60;;
39772;SDS011;25451;51.960;6.250;2022-09-02T15:31:52;2.87;;;1.40;;
39772;SDS011;25451;51.960;6.250;2022-09-02T15:34:18;5.00;;;1.67;;
39772;SDS011;25451;51.960;6.250;2022-09-02T15:36:45;3.95;;;1.50;;
39772;SDS011;25451;51.960;6.250;2022-09-02T15:39:10;3.83;;;1.57;;
39772;SDS011;25451;51.960;6.250;2022-09-02T15:41:36;3.13;;;1.40;;
39772;SDS011;25451;51.960;6.250;2022-09-02T15:44:03;3.57;;;1.47;;
39772;SDS011;25451;51.960;6.250;2022-09-02T15:46:31;3.97;;;1.33;;
39772;SDS011;25451;51.960;6.250;2022-09-02T15:49:02;3.35;;;1.60;;
39772;SDS011;25451;51.960;6.250;2022-09-02T15:51:29;4.65;;;1.50;;
39772;SDS011;25451;51.960;6.250;2022-09-02T15:53:56;2.33;;;1.45;;
39772;SDS011;25451;51.960;6.250;2022-09-02T15:56:24;3.30;;;1.40;;
39772;SDS011;25451;51.960;6.250;2022-09-02T15:58:55;3.60;;;1.50;;
39772;SDS011;25451;51.960;6.250;2022-09-02T16:01:22;3.08;;;1.40;;
39772;SDS011;25451;51.960;6.250;2022-09-02T16:03:48;2.20;;;1.30;;
39772;SDS011;25451;51.960;6.250;2022-09-02T16:06:14;3.97;;;1.50;;
39772;SDS011;25451;51.960;6.250;2022-09-02T16:08:39;3.90;;;1.50;;
39772;SDS011;25451;51.960;6.250;2022-09-02T16:11:05;3.67;;;1.40;;
39772;SDS011;25451;51.960;6.250;2022-09-02T16:13:32;4.25;;;1.50;;
39772;SDS011;25451;51.960;6.250;2022-09-02T16:16:02;2.40;;;1.50;;
39772;SDS011;25451;51.960;6.250;2022-09-02T16:18:30;2.25;;;1.50;;
39772;SDS011;25451;51.960;6.250;2022-09-02T16:20:56;3.20;;;1.40;;
39772;SDS011;25451;51.960;6.250;2022-09-02T16:23:21;3.17;;;1.50;;
39772;SDS011;25451;51.960;6.250;2022-09-02T16:25:46;5.55;;;1.40;;
39772;SDS011;25451;51.960;6.250;2022-09-02T16:28:12;2.70;;;1.27;;
39772;SDS011;25451;51.960;6.250;2022-09-02T16:30:39;3.97;;;1.48;;
39772;SDS011;25451;51.960;6.250;2022-09-02T16:33:04;2.90;;;1.53;;
39772;SDS011;25451;51.960;6.250;2022-09-02T16:35:29;2.50;;;1.60;;
39772;SDS011;25451;51.960;6.250;2022-09-02T16:37:55;2.47;;;1.37;;
39772;SDS011;25451;51.960;6.250;2022-09-02T16:40:21;2.90;;;1.40;;
39772;SDS011;25451;51.960;6.250;2022-09-02T16:42:47;3.83;;;1.50;;
39772;SDS011;25451;51.960;6.250;2022-09-02T16:45:12;2.92;;;1.38;;
39772;SDS011;25451;51.960;6.250;2022-09-02T16:47:38;3.23;;;1.40;;
39772;SDS011;25451;51.960;6.250;2022-09-02T16:50:04;6.30;;;1.67;;
39772;SDS011;25451;51.960;6.250;2022-09-02T16:52:29;3.65;;;1.58;;
39772;SDS011;25451;51.960;6.250;2022-09-02T16:54:58;3.42;;;1.58;;
39772;SDS011;25451;51.960;6.250;2022-09-02T16:57:24;3.43;;;1.60;;
39772;SDS011;25451;51.960;6.250;2022-09-02T16:59:49;5.10;;;1.43;;
39772;SDS011;25451;51.960;6.250;2022-09-02T17:02:15;2.50;;;1.40;;
39772;SDS011;25451;51.960;6.250;2022-09-02T17:04:41;3.13;;;1.37;;
39772;SDS011;25451;51.960;6.250;2022-09-02T17:07:06;4.90;;;1.30;;
39772;SDS011;25451;51.960;6.250;2022-09-02T17:09:31;1.93;;;1.37;;